Time;durP1;ratioP1;P1;durP2;ratioP2;P2;SDS_P1;SDS_P2;PMS_P1;PMS_P2;Temp;Humidity;BMP_temperature;BMP_pressure;BME280_temperature;BME280_humidity;BME280_pressure;Samples;Min_cycle;Max_cycle;Signal;HPM_P1;HPM_P2
2023/07/18 00:01:07;;;;;;;9.10;4.97;;;;;;;;;;4994872;28;20030;-50
2023/07/18 00:03:33;;;;;;;7.43;5.28;;;;;;;;;;5006128;28;20043;-51
2023/07/18 00:05:58;;;;;;;11.85;5.00;;;;;;;;;;4983898;28;20500;-50
2023/07/18 00:08:24;;;;;;;15.88;5.28;;;;;;;;;;4996304;28;20030;-52
2023/07/18 00:10:49;;;;;;;10.50;5.03;;;;;;;;;;4997598;28;20041;-48
2023/07/18 00:13:15;;;;;;;10.70;5.28;;;;;;;;;;4988000;28;20068;-49
2023/07/18 00:15:40;;;;;;;7.90;5.10;;;;;;;;;;4995720;28;20108;-50
2023/07/18 00:18:06;;;;;;;8.20;4.78;;;;;;;;;;4989233;28;20505;-51
2023/07/18 00:20:32;;;;;;;7.65;5.50;;;;;;;;;;4995609;28;20022;-47
2023/07/18 00:22:59;;;;;;;14.32;5.55;;;;;;;;;;4997054;28;20045;-51
2023/07/18 00:25:24;;;;;;;9.57;5.55;;;;;;;;;;4991118;28;20044;-48
2023/07/18 00:27:51;;;;;;;6.32;4.80;;;;;;;;;;4980833;28;20051;-46
2023/07/18 00:30:17;;;;;;;8.38;5.45;;;;;;;;;;4996045;28;20113;-52
2023/07/18 00:32:44;;;;;;;9.75;5.50;;;;;;;;;;4994751;28;20042;-50
2023/07/18 00:35:11;;;;;;;15.63;5.60;;;;;;;;;;4995815;28;20054;-48
2023/07/18 00:37:38;;;;;;;9.50;5.60;;;;;;;;;;4993581;28;20039;-48
2023/07/18 00:40:11;;;;;;;10.00;5.28;;;;;;;;;;4991104;28;20396;-48
2023/07/18 00:42:45;;;;;;;10.30;5.70;;;;;;;;;;4992896;28;20449;-47
2023/07/18 00:45:11;;;;;;;8.82;5.30;;;;;;;;;;4988463;28;20038;-47
2023/07/18 00:47:40;;;;;;;15.00;5.50;;;;;;;;;;4996183;28;20089;-50
2023/07/18 00:50:16;;;;;;;8.38;5.32;;;;;;;;;;4992047;28;20026;-48
2023/07/18 00:52:50;;;;;;;11.00;5.85;;;;;;;;;;4994044;28;20070;-50
2023/07/18 00:55:16;;;;;;;12.27;6.45;;;;;;;;;;4983659;28;20019;-49
2023/07/18 00:57:44;;;;;;;13.15;5.88;;;;;;;;;;4984171;28;20041;-47
2023/07/18 01:00:11;;;;;;;11.25;5.68;;;;;;;;;;4994087;28;20113;-51
2023/07/18 01:02:42;;;;;;;13.88;5.47;;;;;;;;;;4995918;28;20066;-47
2023/07/18 01:05:08;;;;;;;12.65;6.03;;;;;;;;;;4999282;28;20118;-48
2023/07/18 01:07:35;;;;;;;9.63;5.78;;;;;;;;;;4986003;28;20038;-47
2023/07/18 01:10:16;;;;;;;13.73;5.78;;;;;;;;;;4993358;28;20555;-50
2023/07/18 01:12:42;;;;;;;8.18;5.57;;;;;;;;;;4991202;28;20034;-48
2023/07/18 01:15:12;;;;;;;7.20;5.13;;;;;;;;;;4991699;28;20158;-50
2023/07/18 01:17:39;;;;;;;10.32;5.90;;;;;;;;;;4992612;28;20049;-50
2023/07/18 01:20:06;;;;;;;11.60;5.57;;;;;;;;;;4993043;28;20033;-50
2023/07/18 01:22:32;;;;;;;10.32;6.05;;;;;;;;;;4995852;28;20030;-50
2023/07/18 01:24:57;;;;;;;17.05;6.38;;;;;;;;;;4985757;28;20026;-48
2023/07/18 01:27:23;;;;;;;11.13;5.32;;;;;;;;;;4993022;28;20041;-52
2023/07/18 01:29:49;;;;;;;14.88;5.78;;;;;;;;;;4984040;28;20535;-48
2023/07/18 01:32:14;;;;;;;6.50;5.22;;;;;;;;;;4997191;28;20062;-47
2023/07/18 01:34:40;;;;;;;9.20;5.78;;;;;;;;;;4992269;28;20193;-49
2023/07/18 01:37:06;;;;;;;10.02;5.93;;;;;;;;;;4991332;28;20476;-51
2023/07/18 01:39:31;;;;;;;8.23;5.50;;;;;;;;;;4995016;28;20057;-53
2023/07/18 01:41:56;;;;;;;13.75;5.97;;;;;;;;;;4992999;28;20026;-51
2023/07/18 01:44:22;;;;;;;7.57;5.60;;;;;;;;;;4992585;28;20046;-48
2023/07/18 01:46:48;;;;;;;11.60;5.85;;;;;;;;;;4987234;28;20035;-49
2023/07/18 01:49:13;;;;;;;13.00;5.70;;;;;;;;;;4990713;28;20034;-50
2023/07/18 01:51:38;;;;;;;12.32;6.43;;;;;;;;;;4987022;28;20034;-53
2023/07/18 01:54:04;;;;;;;10.68;5.47;;;;;;;;;;4977694;28;20408;-50
2023/07/18 01:56:29;;;;;;;11.15;5.75;;;;;;;;;;4992814;28;20428;-51
2023/07/18 01:58:55;;;;;;;10.32;5.82;;;;;;;;;;4976946;28;20035;-49
2023/07/18 02:01:20;;;;;;;8.18;5.53;;;;;;;;;;4969626;28;20062;-48
2023/07/18 02:03:46;;;;;;;9.07;5.50;;;;;;;;;;4985876;28;20100;-49
2023/07/18 02:06:12;;;;;;;8.20;5.63;;;;;;;;;;4985483;28;20508;-50
2023/07/18 02:08:37;;;;;;;9.27;5.32;;;;;;;;;;4986193;28;20030;-53
2023/07/18 02:11:03;;;;;;;11.23;5.15;;;;;;;;;;4992672;28;20030;-51
2023/07/18 02:13:28;;;;;;;9.13;5.25;;;;;;;;;;4991500;28;20030;-48
2023/07/18 02:15:54;;;;;;;9.75;5.20;;;;;;;;;;4991310;28;20034;-48
2023/07/18 02:18:19;;;;;;;11.88;6.15;;;;;;;;;;4990679;28;20053;-48
2023/07/18 02:20:45;;;;;;;10.25;5.18;;;;;;;;;;4986865;28;20033;-50
2023/07/18 02:23:11;;;;;;;6.93;6.05;;;;;;;;;;4994129;28;20065;-50
2023/07/18 02:25:36;;;;;;;12.55;5.57;;;;;;;;;;4993267;28;20034;-48
2023/07/18 02:28:02;;;;;;;8.15;5.93;;;;;;;;;;4971610;28;20035;-51
2023/07/18 02:30:27;;;;;;;11.75;5.70;;;;;;;;;;4989048;28;20481;-51
2023/07/18 02:32:53;;;;;;;9.32;5.35;;;;;;;;;;4983260;28;20041;-51
2023/07/18 02:35:21;;;;;;;11.82;5.88;;;;;;;;;;4992521;28;20073;-49
2023/07/18 02:37:47;;;;;;;7.97;5.00;;;;;;;;;;4989782;28;20061;-49
2023/07/18 02:40:14;;;;;;;6.70;5.03;;;;;;;;;;4989285;28;20051;-50
2023/07/18 02:42:40;;;;;;;9.57;5.30;;;;;;;;;;4987116;28;20045;-51
2023/07/18 02:45:06;;;;;;;10.98;5.18;;;;;;;;;;4993894;28;20071;-49
2023/07/18 02:47:32;;;;;;;7.75;5.15;;;;;;;;;;4991448;28;20077;-51
2023/07/18 02:49:57;;;;;;;8.75;5.30;;;;;;;;;;4989288;28;20042;-49
2023/07/18 02:52:23;;;;;;;11.15;5.53;;;;;;;;;;4982208;28;20615;-47
2023/07/18 02:54:50;;;;;;;8.98;5.53;;;;;;;;;;4990202;28;20030;-49
2023/07/18 02:57:15;;;;;;;7.47;5.22;;;;;;;;;;4990657;28;20495;-49
2023/07/18 02:59:41;;;;;;;10.45;5.70;;;;;;;;;;4994111;28;20030;-50
2023/07/18 03:02:06;;;;;;;8.30;5.60;;;;;;;;;;4996289;28;20049;-50
2023/07/18 03:04:32;;;;;;;10.00;5.90;;;;;;;;;;4989312;28;20045;-48
2023/07/18 03:07:00;;;;;;;8.57;6.10;;;;;;;;;;4973309;28;20027;-52
2023/07/18 03:09:27;;;;;;;9.80;5.70;;;;;;;;;;4969593;28;20500;-52
2023/07/18 03:11:52;;;;;;;11.82;5.50;;;;;;;;;;4989762;28;20481;-50
2023/07/18 03:14:18;;;;;;;14.10;5.32;;;;;;;;;;4991937;28;20057;-45
2023/07/18 03:16:45;;;;;;;11.35;5.55;;;;;;;;;;4990985;28;20026;-49
2023/07/18 03:19:12;;;;;;;12.00;6.13;;;;;;;;;;4987452;28;20070;-49
2023/07/18 03:21:37;;;;;;;8.38;5.57;;;;;;;;;;4992087;28;20030;-49
2023/07/18 03:24:07;;;;;;;10.18;5.50;;;;;;;;;;4986146;28;20040;-50
2023/07/18 03:26:34;;;;;;;8.60;5.43;;;;;;;;;;4984690;28;20088;-52
2023/07/18 03:28:59;;;;;;;9.15;5.95;;;;;;;;;;4991223;28;20126;-48
2023/07/18 03:31:25;;;;;;;13.57;5.88;;;;;;;;;;4989990;28;20038;-50
2023/07/18 03:33:51;;;;;;;12.77;5.88;;;;;;;;;;4985680;28;20043;-48
2023/07/18 03:36:17;;;;;;;8.70;5.45;;;;;;;;;;4998249;28;20074;-49
2023/07/18 03:38:42;;;;;;;11.75;6.13;;;;;;;;;;4991765;28;20038;-51
2023/07/18 03:41:08;;;;;;;10.98;5.57;;;;;;;;;;4994847;28;20038;-51
2023/07/18 03:43:33;;;;;;;9.25;5.35;;;;;;;;;;4990170;28;20724;-51
2023/07/18 03:45:59;;;;;;;12.60;6.22;;;;;;;;;;4973342;28;20485;-49
2023/07/18 03:48:26;;;;;;;11.73;5.93;;;;;;;;;;4985116;28;20106;-52
2023/07/18 03:50:52;;;;;;;16.63;5.85;;;;;;;;;;4993320;28;20041;-49
2023/07/18 03:53:17;;;;;;;13.27;5.85;;;;;;;;;;4983214;28;20109;-49
2023/07/18 03:55:43;;;;;;;7.22;5.47;;;;;;;;;;4992503;28;20044;-50
2023/07/18 03:58:08;;;;;;;13.45;5.43;;;;;;;;;;4988876;28;20035;-53
2023/07/18 04:00:34;;;;;;;10.32;6.05;;;;;;;;;;4997468;28;20736;-49
2023/07/18 04:02:59;;;;;;;12.07;5.82;;;;;;;;;;4993320;28;20037;-46
2023/07/18 04:05:24;;;;;;;9.85;5.63;;;;;;;;;;4996358;28;20498;-51
2023/07/18 04:07:51;;;;;;;9.32;5.43;;;;;;;;;;4985733;28;20593;-48
2023/07/18 04:10:17;;;;;;;10.45;6.10;;;;;;;;;;4992023;28;20517;-50
2023/07/18 04:12:42;;;;;;;8.68;5.70;;;;;;;;;;4994192;28;20070;-50
2023/07/18 04:15:09;;;;;;;11.50;5.43;;;;;;;;;;4989681;28;20030;-51
2023/07/18 04:17:35;;;;;;;14.68;6.22;;;;;;;;;;4985644;28;20063;-48
2023/07/18 04:20:01;;;;;;;10.13;6.20;;;;;;;;;;4971927;28;20544;-52
2023/07/18 04:22:29;;;;;;;15.68;6.13;;;;;;;;;;4969282;28;20441;-47
2023/07/18 04:24:55;;;;;;;9.75;6.22;;;;;;;;;;4977832;28;20034;-50
2023/07/18 04:27:21;;;;;;;8.20;5.57;;;;;;;;;;4966658;28;20035;-47
2023/07/18 04:29:47;;;;;;;7.70;6.40;;;;;;;;;;4971857;28;20023;-49
2023/07/18 04:32:12;;;;;;;11.10;6.35;;;;;;;;;;4996023;28;20022;-46
2023/07/18 04:34:37;;;;;;;14.48;6.00;;;;;;;;;;4974272;28;20047;-48
2023/07/18 04:37:03;;;;;;;7.88;6.43;;;;;;;;;;4974660;28;20511;-53
2023/07/18 04:39:29;;;;;;;13.10;6.40;;;;;;;;;;4974261;28;20035;-48
2023/07/18 04:41:54;;;;;;;12.55;5.97;;;;;;;;;;4972399;28;20066;-50
2023/07/18 04:44:20;;;;;;;11.93;6.43;;;;;;;;;;4972139;28;20038;-49
2023/07/18 04:46:45;;;;;;;19.65;7.05;;;;;;;;;;4977170;28;20620;-49
2023/07/18 04:49:11;;;;;;;13.05;7.00;;;;;;;;;;4963587;28;20037;-49
2023/07/18 04:51:36;;;;;;;16.42;6.20;;;;;;;;;;4968274;28;20081;-48
2023/07/18 04:54:02;;;;;;;9.55;5.93;;;;;;;;;;4987898;28;20047;-48
2023/07/18 04:56:28;;;;;;;10.55;5.95;;;;;;;;;;4995907;28;20057;-52
2023/07/18 04:58:53;;;;;;;7.18;5.80;;;;;;;;;;4986806;28;20706;-50
2023/07/18 05:01:19;;;;;;;11.25;6.03;;;;;;;;;;4993412;28;20610;-49
2023/07/18 05:03:44;;;;;;;13.73;6.35;;;;;;;;;;4991632;28;21225;-48
2023/07/18 05:06:10;;;;;;;15.07;6.50;;;;;;;;;;4993318;28;20088;-51
2023/07/18 05:08:36;;;;;;;11.45;6.15;;;;;;;;;;4995732;28;20061;-48
2023/07/18 05:11:01;;;;;;;10.65;6.15;;;;;;;;;;4992868;28;20034;-50
2023/07/18 05:13:27;;;;;;;12.02;6.40;;;;;;;;;;4992202;28;20404;-50
2023/07/18 05:15:53;;;;;;;22.00;6.15;;;;;;;;;;4995926;28;20034;-50
2023/07/18 05:18:18;;;;;;;12.63;5.95;;;;;;;;;;4987892;28;20093;-50
2023/07/18 05:20:43;;;;;;;14.05;6.13;;;;;;;;;;4987940;28;20030;-50
2023/07/18 05:23:09;;;;;;;20.10;6.40;;;;;;;;;;4996884;28;20038;-47
2023/07/18 05:25:36;;;;;;;10.50;6.43;;;;;;;;;;4977407;28;20027;-46
2023/07/18 05:28:02;;;;;;;12.20;6.50;;;;;;;;;;4985120;28;20035;-48
2023/07/18 05:30:28;;;;;;;12.48;6.40;;;;;;;;;;4994997;28;20113;-49
2023/07/18 05:32:53;;;;;;;12.93;6.35;;;;;;;;;;4996003;28;20038;-46
2023/07/18 05:35:19;;;;;;;10.35;5.80;;;;;;;;;;4984205;28;20042;-50
2023/07/18 05:37:44;;;;;;;15.15;6.40;;;;;;;;;;4988766;28;20440;-49
2023/07/18 05:40:11;;;;;;;14.02;6.88;;;;;;;;;;4994815;28;20022;-53
2023/07/18 05:42:41;;;;;;;24.23;7.15;;;;;;;;;;4980906;28;20081;-50
2023/07/18 05:45:08;;;;;;;11.73;6.05;;;;;;;;;;4983908;28;20027;-52
2023/07/18 05:47:34;;;;;;;10.07;6.65;;;;;;;;;;4984196;28;20082;-49
2023/07/18 05:50:00;;;;;;;13.77;6.90;;;;;;;;;;4994369;28;20035;-51
2023/07/18 05:52:26;;;;;;;12.07;6.28;;;;;;;;;;4981280;28;20100;-51
2023/07/18 05:54:51;;;;;;;12.82;6.32;;;;;;;;;;4988720;28;20042;-50
2023/07/18 05:57:17;;;;;;;10.57;6.55;;;;;;;;;;4979005;28;20440;-47
2023/07/18 05:59:42;;;;;;;11.55;5.95;;;;;;;;;;4986855;28;20117;-50
2023/07/18 06:02:08;;;;;;;10.00;6.32;;;;;;;;;;4991687;28;20022;-51
2023/07/18 06:04:36;;;;;;;11.23;6.63;;;;;;;;;;4987985;28;20106;-51
2023/07/18 06:07:02;;;;;;;9.82;6.15;;;;;;;;;;4973128;28;20559;-51
2023/07/18 06:09:27;;;;;;;13.15;6.10;;;;;;;;;;4988107;28;20065;-49
2023/07/18 06:11:52;;;;;;;9.32;5.47;;;;;;;;;;4990065;28;20117;-48
2023/07/18 06:14:18;;;;;;;9.27;6.00;;;;;;;;;;4977993;28;20070;-52
2023/07/18 06:16:45;;;;;;;9.93;6.38;;;;;;;;;;4989827;28;20026;-49
2023/07/18 06:19:10;;;;;;;11.48;5.93;;;;;;;;;;4984200;28;20042;-51
2023/07/18 06:21:35;;;;;;;21.65;6.75;;;;;;;;;;4989258;28;20030;-48
2023/07/18 06:24:01;;;;;;;12.38;5.93;;;;;;;;;;4984034;28;20057;-50
2023/07/18 06:26:26;;;;;;;10.48;6.80;;;;;;;;;;4993240;28;20049;-50
2023/07/18 06:28:52;;;;;;;8.85;5.80;;;;;;;;;;4994558;28;20031;-48
2023/07/18 06:31:18;;;;;;;10.13;6.25;;;;;;;;;;4983274;28;20046;-49
2023/07/18 06:33:44;;;;;;;12.80;6.28;;;;;;;;;;4979663;28;20061;-53
2023/07/18 06:36:10;;;;;;;11.93;6.80;;;;;;;;;;4991822;28;20169;-49
2023/07/18 06:38:35;;;;;;;15.10;6.85;;;;;;;;;;4988451;28;20089;-49
2023/07/18 06:41:01;;;;;;;22.00;6.70;;;;;;;;;;5003484;28;20493;-49
2023/07/18 06:43:27;;;;;;;13.90;6.90;;;;;;;;;;4982453;28;20105;-47
2023/07/18 06:45:53;;;;;;;12.23;6.85;;;;;;;;;;4993516;28;20054;-51
2023/07/18 06:48:18;;;;;;;11.27;6.28;;;;;;;;;;4968844;28;20488;-50
2023/07/18 06:50:52;;;;;;;12.77;6.70;;;;;;;;;;4990615;28;20507;-54
2023/07/18 06:53:20;;;;;;;15.27;6.32;;;;;;;;;;4992084;28;20038;-51
2023/07/18 06:55:46;;;;;;;11.15;6.53;;;;;;;;;;4996323;28;20057;-49
2023/07/18 06:58:12;;;;;;;11.43;6.43;;;;;;;;;;4992185;28;20047;-52
2023/07/18 07:00:39;;;;;;;14.13;6.57;;;;;;;;;;4989792;28;20037;-49
2023/07/18 07:03:04;;;;;;;16.92;6.68;;;;;;;;;;4986128;28;20102;-49
2023/07/18 07:05:30;;;;;;;10.85;5.90;;;;;;;;;;4986688;28;20420;-50
2023/07/18 07:07:55;;;;;;;13.65;6.50;;;;;;;;;;4992800;28;20042;-51
2023/07/18 07:10:21;;;;;;;12.95;6.05;;;;;;;;;;4976891;28;20061;-49
2023/07/18 07:12:47;;;;;;;10.75;6.03;;;;;;;;;;4992538;28;20104;-48
2023/07/18 07:15:13;;;;;;;15.50;6.40;;;;;;;;;;4992915;28;20037;-47
2023/07/18 07:17:39;;;;;;;18.67;6.35;;;;;;;;;;4991079;28;20034;-51
2023/07/18 07:20:12;;;;;;;16.90;6.22;;;;;;;;;;4984084;28;20113;-53
2023/07/18 07:22:38;;;;;;;19.27;6.03;;;;;;;;;;4982529;28;20677;-49
2023/07/18 07:25:04;;;;;;;13.32;5.80;;;;;;;;;;4983826;28;20026;-50
2023/07/18 07:27:30;;;;;;;16.48;4.95;;;;;;;;;;4968808;28;20034;-50
2023/07/18 07:29:55;;;;;;;14.75;5.88;;;;;;;;;;4982046;28;20030;-48
2023/07/18 07:32:20;;;;;;;15.73;5.32;;;;;;;;;;4992297;28;20027;-50
2023/07/18 07:34:46;;;;;;;14.00;5.82;;;;;;;;;;4993955;28;20059;-52
2023/07/18 07:37:11;;;;;;;12.07;5.60;;;;;;;;;;4991348;28;20026;-50
2023/07/18 07:39:37;;;;;;;14.82;5.55;;;;;;;;;;4988653;28;20038;-49
2023/07/18 07:42:02;;;;;;;9.35;5.07;;;;;;;;;;4995657;28;20038;-48
2023/07/18 07:44:27;;;;;;;17.17;5.53;;;;;;;;;;4987246;28;20073;-50
2023/07/18 07:46:56;;;;;;;15.38;5.63;;;;;;;;;;4989665;28;20057;-50
2023/07/18 07:49:21;;;;;;;10.63;5.47;;;;;;;;;;4983605;28;20041;-51
2023/07/18 07:51:47;;;;;;;16.73;6.63;;;;;;;;;;4984473;28;20030;-52
2023/07/18 07:54:12;;;;;;;14.30;5.55;;;;;;;;;;4986567;28;20661;-51
2023/07/18 07:56:38;;;;;;;21.95;5.80;;;;;;;;;;4986354;28;20121;-50
2023/07/18 07:59:03;;;;;;;11.30;5.75;;;;;;;;;;4985437;28;20300;-49
2023/07/18 08:01:28;;;;;;;16.15;5.45;;;;;;;;;;4982996;28;20054;-51
2023/07/18 08:03:54;;;;;;;20.70;5.72;;;;;;;;;;4984586;28;20397;-49
2023/07/18 08:06:19;;;;;;;13.40;5.50;;;;;;;;;;4985487;28;20038;-49
2023/07/18 08:08:45;;;;;;;11.40;5.53;;;;;;;;;;4987935;28;20043;-53
2023/07/18 08:11:10;;;;;;;18.42;5.97;;;;;;;;;;5001645;28;20041;-53
2023/07/18 08:13:35;;;;;;;12.73;5.68;;;;;;;;;;4991340;28;20042;-48
2023/07/18 08:16:01;;;;;;;10.07;5.60;;;;;;;;;;4994935;28;20058;-50
2023/07/18 08:18:26;;;;;;;8.43;5.30;;;;;;;;;;4984401;28;20030;-51
2023/07/18 08:20:52;;;;;;;15.00;5.70;;;;;;;;;;4990765;28;20027;-50
2023/07/18 08:23:17;;;;;;;16.05;5.15;;;;;;;;;;4989780;28;20038;-49
2023/07/18 08:25:46;;;;;;;16.33;5.32;;;;;;;;;;4987139;28;20110;-51
2023/07/18 08:28:11;;;;;;;20.35;5.80;;;;;;;;;;4982901;28;20385;-52
2023/07/18 08:30:39;;;;;;;11.18;5.18;;;;;;;;;;4987477;28;20081;-50
2023/07/18 08:33:05;;;;;;;15.88;5.07;;;;;;;;;;4994523;28;20487;-48
2023/07/18 08:35:30;;;;;;;18.48;5.40;;;;;;;;;;4991652;28;20113;-53
2023/07/18 08:37:56;;;;;;;15.10;4.80;;;;;;;;;;4988531;28;20041;-50
2023/07/18 08:40:22;;;;;;;9.57;5.10;;;;;;;;;;4987373;28;20110;-51
2023/07/18 08:42:47;;;;;;;17.58;5.55;;;;;;;;;;4987847;28;20137;-47
2023/07/18 08:45:14;;;;;;;9.45;4.78;;;;;;;;;;4994775;28;20108;-53
2023/07/18 08:47:43;;;;;;;15.70;4.97;;;;;;;;;;5007058;28;20039;-49
2023/07/18 08:50:13;;;;;;;10.88;5.70;;;;;;;;;;4988554;28;20078;-49
2023/07/18 08:52:39;;;;;;;12.00;4.88;;;;;;;;;;4992650;28;20558;-47
2023/07/18 08:55:05;;;;;;;12.00;5.40;;;;;;;;;;4985795;28;20101;-49
2023/07/18 08:57:31;;;;;;;14.57;5.22;;;;;;;;;;4992373;28;20113;-51
2023/07/18 09:00:04;;;;;;;11.02;5.30;;;;;;;;;;4987897;28;20083;-54
2023/07/18 09:02:29;;;;;;;12.07;4.80;;;;;;;;;;4992077;28;20014;-49
2023/07/18 09:04:55;;;;;;;9.65;4.45;;;;;;;;;;4991848;28;20445;-53
2023/07/18 09:07:26;;;;;;;16.30;5.25;;;;;;;;;;4971862;28;20126;-47
2023/07/18 09:09:52;;;;;;;18.48;5.10;;;;;;;;;;4989748;28;20031;-46
2023/07/18 09:12:17;;;;;;;17.05;5.20;;;;;;;;;;4977220;28;20366;-50
2023/07/18 09:14:43;;;;;;;12.70;4.75;;;;;;;;;;4996079;28;20497;-51
2023/07/18 09:17:09;;;;;;;12.52;4.72;;;;;;;;;;4996253;28;20117;-49
2023/07/18 09:19:48;;;;;;;13.80;4.72;;;;;;;;;;4992126;28;20038;-51
2023/07/18 09:22:15;;;;;;;15.52;4.95;;;;;;;;;;4996219;28;20154;-47
2023/07/18 09:24:41;;;;;;;11.65;5.28;;;;;;;;;;4996340;28;20050;-47
2023/07/18 09:27:08;;;;;;;14.32;4.75;;;;;;;;;;4990023;28;20405;-48
2023/07/18 09:29:34;;;;;;;10.55;5.03;;;;;;;;;;4991857;28;20039;-48
2023/07/18 09:32:00;;;;;;;9.75;4.57;;;;;;;;;;4995510;28;20030;-48
2023/07/18 09:34:27;;;;;;;14.40;4.13;;;;;;;;;;4990435;28;20054;-49
2023/07/18 09:37:01;;;;;;;9.52;4.43;;;;;;;;;;4991619;28;20034;-48
2023/07/18 09:39:27;;;;;;;14.48;4.75;;;;;;;;;;4977831;28;20038;-49
2023/07/18 09:41:54;;;;;;;12.18;4.88;;;;;;;;;;4994977;28;20050;-47
2023/07/18 09:44:21;;;;;;;14.20;4.20;;;;;;;;;;4988986;28;20405;-51
2023/07/18 09:46:47;;;;;;;17.05;4.65;;;;;;;;;;4987671;28;20044;-49
2023/07/18 09:49:14;;;;;;;13.70;5.07;;;;;;;;;;4973980;28;20061;-48
2023/07/18 09:51:43;;;;;;;14.45;4.50;;;;;;;;;;4990969;28;20022;-47
2023/07/18 09:54:11;;;;;;;12.23;4.45;;;;;;;;;;4994383;28;20065;-48
2023/07/18 09:56:39;;;;;;;17.95;3.90;;;;;;;;;;4974340;28;20022;-48
2023/07/18 09:59:07;;;;;;;10.02;4.28;;;;;;;;;;4994685;28;20057;-50
2023/07/18 10:01:32;;;;;;;13.70;4.40;;;;;;;;;;4982948;28;20031;-52
2023/07/18 10:03:58;;;;;;;9.57;3.95;;;;;;;;;;4986289;28;20097;-48
2023/07/18 10:06:24;;;;;;;11.80;3.92;;;;;;;;;;4996488;28;20036;-48
2023/07/18 10:08:51;;;;;;;9.43;3.92;;;;;;;;;;4990709;28;20041;-52
2023/07/18 10:11:17;;;;;;;14.30;5.28;;;;;;;;;;4983872;28;20030;-48
2023/07/18 10:13:54;;;;;;;16.63;3.85;;;;;;;;;;4992579;28;20038;-53
2023/07/18 10:16:20;;;;;;;13.07;3.97;;;;;;;;;;4997218;28;20057;-49
2023/07/18 10:18:47;;;;;;;11.55;3.83;;;;;;;;;;4987582;28;20565;-48
2023/07/18 10:21:27;;;;;;;13.15;3.85;;;;;;;;;;4996900;28;20730;-50
2023/07/18 10:23:53;;;;;;;14.25;4.03;;;;;;;;;;4989818;28;20039;-52
2023/07/18 10:26:29;;;;;;;11.65;3.58;;;;;;;;;;4987023;28;20039;-50
2023/07/18 10:28:59;;;;;;;13.15;3.40;;;;;;;;;;4980058;28;20046;-52
2023/07/18 10:31:38;;;;;;;10.45;3.20;;;;;;;;;;4978058;28;20026;-49
2023/07/18 10:34:14;;;;;;;9.82;3.58;;;;;;;;;;4976699;28;20042;-50
2023/07/18 10:36:41;;;;;;;7.95;3.90;;;;;;;;;;4994674;28;20033;-51
2023/07/18 10:39:09;;;;;;;13.45;4.05;;;;;;;;;;4986726;28;20070;-50
2023/07/18 10:41:35;;;;;;;9.63;3.10;;;;;;;;;;4988861;28;20033;-50
2023/07/18 10:44:01;;;;;;;16.58;3.75;;;;;;;;;;4968754;28;20055;-48
2023/07/18 10:46:36;;;;;;;7.72;3.38;;;;;;;;;;4959216;28;20042;-51
2023/07/18 10:49:02;;;;;;;12.25;3.65;;;;;;;;;;4962722;28;20046;-48
2023/07/18 10:51:32;;;;;;;9.82;3.63;;;;;;;;;;4972327;28;20023;-49
2023/07/18 10:54:00;;;;;;;13.20;4.10;;;;;;;;;;4986958;28;20047;-54
2023/07/18 10:56:27;;;;;;;12.50;3.65;;;;;;;;;;4985293;28;20073;-52
2023/07/18 10:58:55;;;;;;;7.70;3.40;;;;;;;;;;4995227;28;20045;-51
2023/07/18 11:01:23;;;;;;;15.27;4.38;;;;;;;;;;4990437;28;20030;-48
2023/07/18 11:03:48;;;;;;;11.93;4.25;;;;;;;;;;4991773;28;20489;-48
2023/07/18 11:06:17;;;;;;;8.32;4.25;;;;;;;;;;4994973;28;20113;-49
2023/07/18 11:08:45;;;;;;;8.18;4.07;;;;;;;;;;4975347;28;20065;-50
2023/07/18 11:11:14;;;;;;;10.68;4.03;;;;;;;;;;4975728;28;20027;-54
2023/07/18 11:13:43;;;;;;;11.35;4.10;;;;;;;;;;4982547;28;20480;-49
2023/07/18 11:16:11;;;;;;;7.05;3.95;;;;;;;;;;4992191;28;20035;-51
2023/07/18 11:18:45;;;;;;;7.25;3.78;;;;;;;;;;4979162;28;20031;-51
2023/07/18 11:21:12;;;;;;;8.35;3.63;;;;;;;;;;4989667;28;20034;-49
2023/07/18 11:23:39;;;;;;;4.97;3.08;;;;;;;;;;4982678;28;20034;-55
2023/07/18 11:26:12;;;;;;;10.20;3.58;;;;;;;;;;4990990;28;20041;-52
2023/07/18 11:28:38;;;;;;;8.55;3.90;;;;;;;;;;4987743;28;20054;-49
2023/07/18 11:31:03;;;;;;;13.32;4.65;;;;;;;;;;4989153;28;20042;-51
2023/07/18 11:33:31;;;;;;;10.63;3.70;;;;;;;;;;4987746;28;20143;-52
2023/07/18 11:35:57;;;;;;;11.20;3.50;;;;;;;;;;4988880;28;20053;-51
2023/07/18 11:38:27;;;;;;;9.40;3.80;;;;;;;;;;4984237;28;20463;-48
2023/07/18 11:40:52;;;;;;;9.20;3.40;;;;;;;;;;4985185;28;20045;-50
2023/07/18 11:43:18;;;;;;;16.23;3.83;;;;;;;;;;4984236;28;20042;-51
2023/07/18 11:45:44;;;;;;;10.60;3.72;;;;;;;;;;4987635;28;20116;-53
2023/07/18 11:48:10;;;;;;;4.70;3.20;;;;;;;;;;4987732;28;20053;-51
2023/07/18 11:50:35;;;;;;;11.75;3.70;;;;;;;;;;4994149;28;20057;-54
2023/07/18 11:53:03;;;;;;;6.32;3.10;;;;;;;;;;4989541;28;20046;-53
2023/07/18 11:55:30;;;;;;;10.10;3.55;;;;;;;;;;4995754;28;20042;-53
2023/07/18 11:57:56;;;;;;;4.40;2.60;;;;;;;;;;4986536;28;20082;-52
2023/07/18 12:00:22;;;;;;;11.43;3.35;;;;;;;;;;4987243;28;20061;-53
2023/07/18 12:02:48;;;;;;;6.70;3.00;;;;;;;;;;4995682;28;20110;-51
2023/07/18 12:05:15;;;;;;;7.50;3.20;;;;;;;;;;4991072;28;20053;-49
2023/07/18 12:07:41;;;;;;;5.55;3.20;;;;;;;;;;4984402;28;20039;-49
2023/07/18 12:10:07;;;;;;;6.55;2.92;;;;;;;;;;4996232;28;20104;-53
2023/07/18 12:12:34;;;;;;;15.15;3.83;;;;;;;;;;4997085;28;20416;-49
2023/07/18 12:15:00;;;;;;;10.27;3.35;;;;;;;;;;4971518;28;20035;-49
2023/07/18 12:17:26;;;;;;;5.90;3.22;;;;;;;;;;4991970;28;20504;-53
2023/07/18 12:19:51;;;;;;;14.45;3.38;;;;;;;;;;4996132;28;20037;-52
2023/07/18 12:22:18;;;;;;;9.93;3.58;;;;;;;;;;4989886;28;20039;-52
2023/07/18 12:24:43;;;;;;;4.88;2.65;;;;;;;;;;4986433;28;20081;-50
2023/07/18 12:27:09;;;;;;;5.25;2.97;;;;;;;;;;4998124;28;20366;-52
2023/07/18 12:29:36;;;;;;;9.45;3.38;;;;;;;;;;4996395;28;20034;-50
2023/07/18 12:32:02;;;;;;;14.40;3.17;;;;;;;;;;4993940;28;20027;-52
2023/07/18 12:34:27;;;;;;;5.07;3.20;;;;;;;;;;4994589;28;20132;-51
2023/07/18 12:36:53;;;;;;;8.90;3.05;;;;;;;;;;4975922;28;20070;-52
2023/07/18 12:39:19;;;;;;;6.13;3.20;;;;;;;;;;4994141;28;20038;-51
2023/07/18 12:41:44;;;;;;;7.88;3.05;;;;;;;;;;4997620;28;20032;-50
2023/07/18 12:44:18;;;;;;;5.35;2.70;;;;;;;;;;4998443;28;20038;-48
2023/07/18 12:46:45;;;;;;;12.13;3.40;;;;;;;;;;4985841;28;20034;-50
2023/07/18 12:49:10;;;;;;;7.50;3.28;;;;;;;;;;4989779;28;20422;-50
2023/07/18 12:51:36;;;;;;;4.95;3.15;;;;;;;;;;4993906;28;20129;-51
2023/07/18 12:54:01;;;;;;;8.35;3.72;;;;;;;;;;4993151;28;20062;-49
2023/07/18 12:56:29;;;;;;;10.15;3.45;;;;;;;;;;4967408;28;20387;-52
2023/07/18 12:58:55;;;;;;;6.60;3.17;;;;;;;;;;4996665;28;20369;-53
2023/07/18 13:01:20;;;;;;;6.95;3.28;;;;;;;;;;4995291;28;20053;-52
2023/07/18 13:03:46;;;;;;;9.45;3.25;;;;;;;;;;4988499;28;20045;-51
2023/07/18 13:06:11;;;;;;;11.55;2.95;;;;;;;;;;4992534;28;20440;-48
2023/07/18 13:08:37;;;;;;;8.60;3.28;;;;;;;;;;4988922;28;20106;-50
2023/07/18 13:11:03;;;;;;;6.47;2.75;;;;;;;;;;4996612;28;20109;-54
2023/07/18 13:13:29;;;;;;;10.32;3.40;;;;;;;;;;4982745;28;20451;-52
2023/07/18 13:15:55;;;;;;;9.23;3.30;;;;;;;;;;4993940;28;20114;-51
2023/07/18 13:18:20;;;;;;;5.88;3.28;;;;;;;;;;4987752;28;20050;-50
2023/07/18 13:20:45;;;;;;;6.70;3.10;;;;;;;;;;4993212;28;20034;-51
2023/07/18 13:23:11;;;;;;;10.40;3.42;;;;;;;;;;4985557;28;20507;-50
2023/07/18 13:25:36;;;;;;;6.75;2.72;;;;;;;;;;4995548;28;20041;-48
2023/07/18 13:28:02;;;;;;;6.68;3.10;;;;;;;;;;4976090;28;20118;-51
2023/07/18 13:30:28;;;;;;;9.32;3.03;;;;;;;;;;4970398;28;20031;-48
2023/07/18 13:32:53;;;;;;;4.93;2.90;;;;;;;;;;4975919;28;20113;-49
2023/07/18 13:35:19;;;;;;;8.65;3.28;;;;;;;;;;4972034;28;20085;-52
2023/07/18 13:37:44;;;;;;;6.10;3.50;;;;;;;;;;4989788;28;20059;-47
2023/07/18 13:40:10;;;;;;;11.48;2.88;;;;;;;;;;4996106;28;20480;-49
2023/07/18 13:42:36;;;;;;;11.32;2.90;;;;;;;;;;4989653;28;20488;-50
2023/07/18 13:45:04;;;;;;;7.55;3.13;;;;;;;;;;4988796;28;20085;-50
2023/07/18 13:47:30;;;;;;;5.78;3.00;;;;;;;;;;4972532;28;20033;-51
2023/07/18 13:49:55;;;;;;;9.30;2.70;;;;;;;;;;4992114;28;20084;-47
2023/07/18 13:52:21;;;;;;;10.77;3.28;;;;;;;;;;4992860;28;20018;-51
2023/07/18 13:54:49;;;;;;;9.13;2.95;;;;;;;;;;4991268;28;20038;-51
2023/07/18 13:57:14;;;;;;;5.65;2.60;;;;;;;;;;4988362;28;20133;-52
2023/07/18 13:59:40;;;;;;;6.15;3.17;;;;;;;;;;4990521;28;20065;-50
2023/07/18 14:02:06;;;;;;;6.15;3.35;;;;;;;;;;4989682;28;20030;-54
2023/07/18 14:04:32;;;;;;;9.32;3.65;;;;;;;;;;4996615;28;20032;-52
2023/07/18 14:06:58;;;;;;;8.15;3.35;;;;;;;;;;4993623;28;20117;-53
2023/07/18 14:09:23;;;;;;;8.15;3.30;;;;;;;;;;4967836;28;20117;-48
2023/07/18 14:11:49;;;;;;;8.70;3.00;;;;;;;;;;4995519;28;20038;-50
2023/07/18 14:14:14;;;;;;;7.30;3.05;;;;;;;;;;4995586;28;20129;-54
2023/07/18 14:16:39;;;;;;;6.38;2.80;;;;;;;;;;4990699;28;20396;-53
2023/07/18 14:19:05;;;;;;;6.82;2.83;;;;;;;;;;4985144;28;20914;-52
2023/07/18 14:21:30;;;;;;;9.60;3.10;;;;;;;;;;4984825;28;20388;-49
2023/07/18 14:23:56;;;;;;;12.88;2.78;;;;;;;;;;4987509;28;20035;-50
2023/07/18 14:26:22;;;;;;;6.70;3.15;;;;;;;;;;4994578;28;20022;-50
2023/07/18 14:28:48;;;;;;;4.40;3.05;;;;;;;;;;4984373;28;20065;-50
2023/07/18 14:31:14;;;;;;;7.95;3.03;;;;;;;;;;4990810;28;20046;-47